sensor_id;sensor_type;location;lat;lon;timestamp;P1;durP1;ratioP1;P2;durP2;ratioP2
7511;SDS011;9999;48.780;9.146;2023-05-08T00:01:58;9.55;;;6.57;;
7511;SDS011;9999;48.780;9.146;2023-05-08T00:04:25;9.25;;;6.18;;
7511;SDS011;9999;48.780;9.146;2023-05-08T00:06:52;11.02;;;5.90;;
7511;SDS011;9999;48.780;9.146;2023-05-08T00:09:19;14.00;;;7.35;;
7511;SDS011;9999;48.780;9.146;2023-05-08T00:11:45;13.05;;;6.25;;
7511;SDS011;9999;48.780;9.146;2023-05-08T00:14:12;9.43;;;6.55;;
7511;SDS011;9999;48.780;9.146;2023-05-08T00:16:41;11.55;;;6.63;;
7511;SDS011;9999;48.780;9.146;2023-05-08T00:19:08;8.55;;;6.43;;
7511;SDS011;9999;48.780;9.146;2023-05-08T00:21:35;9.18;;;6.53;;
7511;SDS011;9999;48.780;9.146;2023-05-08T00:24:02;9.13;;;6.05;;
7511;SDS011;9999;48.780;9.146;2023-05-08T00:26:29;8.68;;;4.85;;
7511;SDS011;9999;48.780;9.146;2023-05-08T00:28:55;8.98;;;5.85;;
7511;SDS011;9999;48.780;9.146;2023-05-08T00:31:22;6.68;;;5.15;;
7511;SDS011;9999;48.780;9.146;2023-05-08T00:33:50;9.10;;;5.00;;
7511;SDS011;9999;48.780;9.146;2023-05-08T00:36:17;9.48;;;6.03;;
7511;SDS011;9999;48.780;9.146;2023-05-08T00:38:44;8.68;;;5.47;;
7511;SDS011;9999;48.780;9.146;2023-05-08T00:41:11;6.32;;;4.50;;
7511;SDS011;9999;48.780;9.146;2023-05-08T00:43:38;6.35;;;4.93;;
7511;SDS011;9999;48.780;9.146;2023-05-08T00:46:04;6.55;;;5.13;;
7511;SDS011;9999;48.780;9.146;2023-05-08T00:48:33;6.93;;;4.53;;
7511;SDS011;9999;48.780;9.146;2023-05-08T00:51:03;6.85;;;5.20;;
7511;SDS011;9999;48.780;9.146;2023-05-08T00:53:32;5.07;;;4.47;;
7511;SDS011;9999;48.780;9.146;2023-05-08T00:56:02;4.65;;;3.85;;
7511;SDS011;9999;48.780;9.146;2023-05-08T00:58:30;8.05;;;4.45;;
7511;SDS011;9999;48.780;9.146;2023-05-08T01:00:58;6.30;;;4.78;;
7511;SDS011;9999;48.780;9.146;2023-05-08T01:03:25;4.85;;;3.72;;
7511;SDS011;9999;48.780;9.146;2023-05-08T01:05:53;5.82;;;4.45;;
7511;SDS011;9999;48.780;9.146;2023-05-08T01:08:22;7.05;;;4.57;;
7511;SDS011;9999;48.780;9.146;2023-05-08T01:10:53;9.05;;;5.35;;
7511;SDS011;9999;48.780;9.146;2023-05-08T01:13:34;6.88;;;4.68;;
7511;SDS011;9999;48.780;9.146;2023-05-08T01:16:10;8.77;;;6.03;;
7511;SDS011;9999;48.780;9.146;2023-05-08T01:18:43;8.55;;;6.15;;
7511;SDS011;9999;48.780;9.146;2023-05-08T01:21:16;7.95;;;5.78;;
7511;SDS011;9999;48.780;9.146;2023-05-08T01:24:06;10.75;;;6.22;;
7511;SDS011;9999;48.780;9.146;2023-05-08T01:27:15;10.70;;;5.97;;
7511;SDS011;9999;48.780;9.146;2023-05-08T01:33:05;8.45;;;5.93;;
7511;SDS011;9999;48.780;9.146;2023-05-08T01:35:40;9.02;;;6.07;;
7511;SDS011;9999;48.780;9.146;2023-05-08T01:38:12;9.10;;;6.15;;
7511;SDS011;9999;48.780;9.146;2023-05-08T01:40:54;10.60;;;6.32;;
7511;SDS011;9999;48.780;9.146;2023-05-08T01:43:28;17.50;;;6.45;;
7511;SDS011;9999;48.780;9.146;2023-05-08T01:45:59;9.40;;;5.78;;
7511;SDS011;9999;48.780;9.146;2023-05-08T01:48:32;12.07;;;6.75;;
7511;SDS011;9999;48.780;9.146;2023-05-08T01:51:04;7.97;;;5.78;;
7511;SDS011;9999;48.780;9.146;2023-05-08T01:53:42;17.17;;;6.30;;
7511;SDS011;9999;48.780;9.146;2023-05-08T01:56:14;10.15;;;5.90;;
7511;SDS011;9999;48.780;9.146;2023-05-08T01:58:46;9.75;;;6.30;;
7511;SDS011;9999;48.780;9.146;2023-05-08T02:01:14;12.23;;;8.02;;
7511;SDS011;9999;48.780;9.146;2023-05-08T02:03:46;10.48;;;6.40;;
7511;SDS011;9999;48.780;9.146;2023-05-08T02:06:15;9.35;;;6.47;;
7511;SDS011;9999;48.780;9.146;2023-05-08T02:08:46;13.63;;;7.43;;
7511;SDS011;9999;48.780;9.146;2023-05-08T02:11:13;12.88;;;7.82;;
7511;SDS011;9999;48.780;9.146;2023-05-08T02:13:42;12.98;;;7.20;;
7511;SDS011;9999;48.780;9.146;2023-05-08T02:16:11;9.93;;;7.30;;
7511;SDS011;9999;48.780;9.146;2023-05-08T02:18:40;13.88;;;7.93;;
7511;SDS011;9999;48.780;9.146;2023-05-08T02:21:13;12.93;;;7.15;;
7511;SDS011;9999;48.780;9.146;2023-05-08T02:23:41;13.27;;;8.38;;
7511;SDS011;9999;48.780;9.146;2023-05-08T02:26:10;9.88;;;6.78;;
7511;SDS011;9999;48.780;9.146;2023-05-08T02:28:39;8.52;;;6.32;;
7511;SDS011;9999;48.780;9.146;2023-05-08T02:31:07;12.30;;;7.13;;
7511;SDS011;9999;48.780;9.146;2023-05-08T02:33:36;12.75;;;6.57;;
7511;SDS011;9999;48.780;9.146;2023-05-08T02:36:05;10.00;;;6.22;;
7511;SDS011;9999;48.780;9.146;2023-05-08T02:38:35;8.43;;;5.75;;
7511;SDS011;9999;48.780;9.146;2023-05-08T02:41:04;12.23;;;7.35;;
7511;SDS011;9999;48.780;9.146;2023-05-08T02:43:33;10.18;;;6.72;;
7511;SDS011;9999;48.780;9.146;2023-05-08T02:46:04;9.10;;;6.45;;
7511;SDS011;9999;48.780;9.146;2023-05-08T02:48:37;8.98;;;5.72;;
7511;SDS011;9999;48.780;9.146;2023-05-08T02:51:14;9.15;;;5.85;;
7511;SDS011;9999;48.780;9.146;2023-05-08T02:53:49;9.63;;;6.18;;
7511;SDS011;9999;48.780;9.146;2023-05-08T02:56:22;12.48;;;8.35;;
7511;SDS011;9999;48.780;9.146;2023-05-08T02:58:58;10.25;;;6.90;;
7511;SDS011;9999;48.780;9.146;2023-05-08T03:01:34;8.23;;;5.68;;
7511;SDS011;9999;48.780;9.146;2023-05-08T03:04:06;11.75;;;7.35;;
7511;SDS011;9999;48.780;9.146;2023-05-08T03:06:35;10.35;;;6.65;;
7511;SDS011;9999;48.780;9.146;2023-05-08T03:09:06;10.63;;;7.78;;
7511;SDS011;9999;48.780;9.146;2023-05-08T03:11:42;12.75;;;7.85;;
7511;SDS011;9999;48.780;9.146;2023-05-08T03:14:13;12.85;;;7.93;;
7511;SDS011;9999;48.780;9.146;2023-05-08T03:16:44;12.32;;;7.07;;
7511;SDS011;9999;48.780;9.146;2023-05-08T03:19:14;24.13;;;8.27;;
7511;SDS011;9999;48.780;9.146;2023-05-08T03:21:45;10.98;;;6.80;;
7511;SDS011;9999;48.780;9.146;2023-05-08T03:24:15;11.52;;;7.18;;
7511;SDS011;9999;48.780;9.146;2023-05-08T03:26:45;14.13;;;7.75;;
7511;SDS011;9999;48.780;9.146;2023-05-08T03:29:14;14.10;;;7.82;;
7511;SDS011;9999;48.780;9.146;2023-05-08T03:31:43;13.35;;;7.30;;
7511;SDS011;9999;48.780;9.146;2023-05-08T03:34:10;11.32;;;6.72;;
7511;SDS011;9999;48.780;9.146;2023-05-08T03:36:38;11.88;;;7.40;;
7511;SDS011;9999;48.780;9.146;2023-05-08T03:39:05;9.70;;;6.93;;
7511;SDS011;9999;48.780;9.146;2023-05-08T03:41:34;9.10;;;5.70;;
7511;SDS011;9999;48.780;9.146;2023-05-08T03:44:01;11.38;;;6.53;;
7511;SDS011;9999;48.780;9.146;2023-05-08T03:46:29;7.80;;;5.78;;
7511;SDS011;9999;48.780;9.146;2023-05-08T03:48:57;15.15;;;5.25;;
7511;SDS011;9999;48.780;9.146;2023-05-08T03:51:25;10.57;;;6.43;;
7511;SDS011;9999;48.780;9.146;2023-05-08T03:53:52;10.05;;;6.10;;
7511;SDS011;9999;48.780;9.146;2023-05-08T03:56:20;7.75;;;5.38;;
7511;SDS011;9999;48.780;9.146;2023-05-08T03:58:49;8.70;;;5.45;;
7511;SDS011;9999;48.780;9.146;2023-05-08T04:01:24;8.38;;;5.57;;
7511;SDS011;9999;48.780;9.146;2023-05-08T04:04:03;8.30;;;5.88;;
7511;SDS011;9999;48.780;9.146;2023-05-08T04:06:36;9.35;;;6.13;;
7511;SDS011;9999;48.780;9.146;2023-05-08T04:09:06;8.10;;;5.45;;
7511;SDS011;9999;48.780;9.146;2023-05-08T04:11:40;9.13;;;5.47;;
7511;SDS011;9999;48.780;9.146;2023-05-08T04:14:12;13.95;;;6.10;;
7511;SDS011;9999;48.780;9.146;2023-05-08T04:16:46;11.25;;;6.38;;
7511;SDS011;9999;48.780;9.146;2023-05-08T04:19:17;7.38;;;5.30;;
7511;SDS011;9999;48.780;9.146;2023-05-08T04:21:48;9.73;;;5.70;;
7511;SDS011;9999;48.780;9.146;2023-05-08T04:24:20;8.80;;;6.60;;
7511;SDS011;9999;48.780;9.146;2023-05-08T04:26:48;8.30;;;5.72;;
7511;SDS011;9999;48.780;9.146;2023-05-08T04:29:18;8.10;;;5.65;;
7511;SDS011;9999;48.780;9.146;2023-05-08T04:31:45;8.55;;;5.45;;
7511;SDS011;9999;48.780;9.146;2023-05-08T04:34:15;9.02;;;5.95;;
7511;SDS011;9999;48.780;9.146;2023-05-08T04:36:43;10.75;;;6.63;;
7511;SDS011;9999;48.780;9.146;2023-05-08T04:39:10;9.90;;;6.65;;
7511;SDS011;9999;48.780;9.146;2023-05-08T04:41:37;9.43;;;6.10;;
7511;SDS011;9999;48.780;9.146;2023-05-08T04:44:04;8.43;;;5.85;;
7511;SDS011;9999;48.780;9.146;2023-05-08T04:46:32;8.60;;;5.65;;
7511;SDS011;9999;48.780;9.146;2023-05-08T04:48:59;10.25;;;5.30;;
7511;SDS011;9999;48.780;9.146;2023-05-08T04:51:27;10.57;;;5.57;;
7511;SDS011;9999;48.780;9.146;2023-05-08T04:53:56;10.18;;;5.90;;
7511;SDS011;9999;48.780;9.146;2023-05-08T04:56:22;9.07;;;6.03;;
7511;SDS011;9999;48.780;9.146;2023-05-08T04:58:51;9.00;;;5.63;;
7511;SDS011;9999;48.780;9.146;2023-05-08T05:01:18;11.32;;;6.38;;
7511;SDS011;9999;48.780;9.146;2023-05-08T05:03:47;11.25;;;5.57;;
7511;SDS011;9999;48.780;9.146;2023-05-08T05:06:13;9.95;;;5.90;;
7511;SDS011;9999;48.780;9.146;2023-05-08T05:08:40;8.02;;;5.25;;
7511;SDS011;9999;48.780;9.146;2023-05-08T05:11:07;11.68;;;5.55;;
7511;SDS011;9999;48.780;9.146;2023-05-08T05:13:34;7.68;;;5.32;;
7511;SDS011;9999;48.780;9.146;2023-05-08T05:16:01;8.15;;;5.22;;
7511;SDS011;9999;48.780;9.146;2023-05-08T05:18:28;6.63;;;4.88;;
7511;SDS011;9999;48.780;9.146;2023-05-08T05:20:57;6.28;;;4.78;;
7511;SDS011;9999;48.780;9.146;2023-05-08T05:23:25;7.97;;;5.35;;
7511;SDS011;9999;48.780;9.146;2023-05-08T05:25:51;6.95;;;4.47;;
7511;SDS011;9999;48.780;9.146;2023-05-08T05:28:18;8.27;;;5.60;;
7511;SDS011;9999;48.780;9.146;2023-05-08T05:30:45;7.45;;;4.75;;
7511;SDS011;9999;48.780;9.146;2023-05-08T05:33:12;8.30;;;4.90;;
7511;SDS011;9999;48.780;9.146;2023-05-08T05:35:39;11.07;;;4.95;;
7511;SDS011;9999;48.780;9.146;2023-05-08T05:38:07;7.80;;;5.85;;
7511;SDS011;9999;48.780;9.146;2023-05-08T05:40:35;5.97;;;4.78;;
7511;SDS011;9999;48.780;9.146;2023-05-08T05:43:01;6.72;;;4.60;;
7511;SDS011;9999;48.780;9.146;2023-05-08T05:45:28;7.18;;;4.82;;
7511;SDS011;9999;48.780;9.146;2023-05-08T05:47:55;7.38;;;5.40;;
7511;SDS011;9999;48.780;9.146;2023-05-08T05:50:24;7.57;;;4.97;;
7511;SDS011;9999;48.780;9.146;2023-05-08T05:52:52;9.45;;;5.22;;
7511;SDS011;9999;48.780;9.146;2023-05-08T05:55:20;6.95;;;5.03;;
7511;SDS011;9999;48.780;9.146;2023-05-08T05:57:47;8.07;;;4.88;;
7511;SDS011;9999;48.780;9.146;2023-05-08T06:00:16;6.60;;;5.18;;
7511;SDS011;9999;48.780;9.146;2023-05-08T06:02:48;8.15;;;5.53;;
7511;SDS011;9999;48.780;9.146;2023-05-08T06:05:16;10.20;;;6.60;;
7511;SDS011;9999;48.780;9.146;2023-05-08T06:07:43;8.05;;;5.45;;
7511;SDS011;9999;48.780;9.146;2023-05-08T06:10:11;9.98;;;5.47;;
7511;SDS011;9999;48.780;9.146;2023-05-08T06:12:39;7.22;;;4.72;;
7511;SDS011;9999;48.780;9.146;2023-05-08T06:15:08;7.90;;;5.13;;
7511;SDS011;9999;48.780;9.146;2023-05-08T06:17:36;10.25;;;6.10;;
7511;SDS011;9999;48.780;9.146;2023-05-08T06:20:03;8.50;;;5.63;;
7511;SDS011;9999;48.780;9.146;2023-05-08T06:22:31;7.82;;;5.65;;
7511;SDS011;9999;48.780;9.146;2023-05-08T06:24:57;8.00;;;5.07;;
7511;SDS011;9999;48.780;9.146;2023-05-08T06:27:24;9.43;;;5.97;;
7511;SDS011;9999;48.780;9.146;2023-05-08T06:29:52;9.05;;;5.07;;
7511;SDS011;9999;48.780;9.146;2023-05-08T06:32:19;11.07;;;6.15;;
7511;SDS011;9999;48.780;9.146;2023-05-08T06:34:47;9.05;;;5.35;;
7511;SDS011;9999;48.780;9.146;2023-05-08T06:37:13;7.10;;;5.35;;
7511;SDS011;9999;48.780;9.146;2023-05-08T06:39:40;8.25;;;4.95;;
7511;SDS011;9999;48.780;9.146;2023-05-08T06:42:07;7.85;;;5.53;;
7511;SDS011;9999;48.780;9.146;2023-05-08T06:44:37;10.32;;;5.43;;
7511;SDS011;9999;48.780;9.146;2023-05-08T06:47:06;8.05;;;5.15;;
7511;SDS011;9999;48.780;9.146;2023-05-08T06:49:34;10.80;;;5.40;;
7511;SDS011;9999;48.780;9.146;2023-05-08T06:52:01;8.20;;;5.05;;
7511;SDS011;9999;48.780;9.146;2023-05-08T06:54:28;7.85;;;5.70;;
7511;SDS011;9999;48.780;9.146;2023-05-08T06:56:54;6.68;;;4.85;;
7511;SDS011;9999;48.780;9.146;2023-05-08T06:59:21;8.05;;;4.85;;
7511;SDS011;9999;48.780;9.146;2023-05-08T07:01:48;8.52;;;5.55;;
7511;SDS011;9999;48.780;9.146;2023-05-08T07:04:16;8.55;;;5.25;;
7511;SDS011;9999;48.780;9.146;2023-05-08T07:06:43;6.68;;;5.30;;
7511;SDS011;9999;48.780;9.146;2023-05-08T07:09:10;7.72;;;4.80;;
7511;SDS011;9999;48.780;9.146;2023-05-08T07:11:36;8.57;;;5.47;;
7511;SDS011;9999;48.780;9.146;2023-05-08T07:14:03;11.32;;;7.20;;
7511;SDS011;9999;48.780;9.146;2023-05-08T07:16:30;9.07;;;5.25;;
7511;SDS011;9999;48.780;9.146;2023-05-08T07:18:57;6.35;;;4.93;;
7511;SDS011;9999;48.780;9.146;2023-05-08T07:21:25;8.55;;;5.80;;
7511;SDS011;9999;48.780;9.146;2023-05-08T07:23:51;8.80;;;6.28;;
7511;SDS011;9999;48.780;9.146;2023-05-08T07:26:18;6.80;;;5.47;;
7511;SDS011;9999;48.780;9.146;2023-05-08T07:28:46;6.90;;;5.20;;
7511;SDS011;9999;48.780;9.146;2023-05-08T07:31:15;7.93;;;6.20;;
7511;SDS011;9999;48.780;9.146;2023-05-08T07:33:41;6.35;;;5.50;;
7511;SDS011;9999;48.780;9.146;2023-05-08T07:36:08;8.13;;;5.90;;
7511;SDS011;9999;48.780;9.146;2023-05-08T07:38:36;7.20;;;4.85;;
7511;SDS011;9999;48.780;9.146;2023-05-08T07:41:03;9.48;;;6.18;;
7511;SDS011;9999;48.780;9.146;2023-05-08T07:43:31;10.23;;;5.60;;
7511;SDS011;9999;48.780;9.146;2023-05-08T07:45:57;6.88;;;5.07;;
7511;SDS011;9999;48.780;9.146;2023-05-08T07:48:24;6.25;;;4.45;;
7511;SDS011;9999;48.780;9.146;2023-05-08T07:50:51;8.68;;;5.15;;
7511;SDS011;9999;48.780;9.146;2023-05-08T07:53:18;6.75;;;4.93;;
7511;SDS011;9999;48.780;9.146;2023-05-08T07:55:46;6.38;;;4.38;;
7511;SDS011;9999;48.780;9.146;2023-05-08T07:58:13;7.47;;;5.05;;
7511;SDS011;9999;48.780;9.146;2023-05-08T08:00:39;7.15;;;4.80;;
7511;SDS011;9999;48.780;9.146;2023-05-08T08:03:06;8.40;;;5.35;;
7511;SDS011;9999;48.780;9.146;2023-05-08T08:05:33;8.50;;;5.95;;
7511;SDS011;9999;48.780;9.146;2023-05-08T08:08:00;8.57;;;6.32;;
7511;SDS011;9999;48.780;9.146;2023-05-08T08:10:27;8.60;;;5.00;;
7511;SDS011;9999;48.780;9.146;2023-05-08T08:12:55;11.32;;;5.63;;
7511;SDS011;9999;48.780;9.146;2023-05-08T08:15:21;8.48;;;6.10;;
7511;SDS011;9999;48.780;9.146;2023-05-08T08:17:48;8.82;;;5.82;;
7511;SDS011;9999;48.780;9.146;2023-05-08T08:20:15;8.52;;;4.95;;
7511;SDS011;9999;48.780;9.146;2023-05-08T08:22:42;9.05;;;4.75;;
7511;SDS011;9999;48.780;9.146;2023-05-08T08:25:09;10.60;;;4.63;;
7511;SDS011;9999;48.780;9.146;2023-05-08T08:27:36;7.50;;;4.68;;
7511;SDS011;9999;48.780;9.146;2023-05-08T08:30:05;8.52;;;5.45;;
7511;SDS011;9999;48.780;9.146;2023-05-08T08:32:33;6.30;;;4.90;;
7511;SDS011;9999;48.780;9.146;2023-05-08T08:34:59;6.60;;;4.82;;
7511;SDS011;9999;48.780;9.146;2023-05-08T08:37:27;7.20;;;5.75;;
7511;SDS011;9999;48.780;9.146;2023-05-08T08:39:54;6.75;;;4.65;;
7511;SDS011;9999;48.780;9.146;2023-05-08T08:42:21;6.72;;;4.22;;
7511;SDS011;9999;48.780;9.146;2023-05-08T08:44:48;5.70;;;4.18;;
7511;SDS011;9999;48.780;9.146;2023-05-08T08:47:16;6.03;;;4.22;;
7511;SDS011;9999;48.780;9.146;2023-05-08T08:49:47;10.25;;;4.05;;
7511;SDS011;9999;48.780;9.146;2023-05-08T08:52:18;5.03;;;3.47;;
7511;SDS011;9999;48.780;9.146;2023-05-08T08:54:52;4.70;;;3.97;;
7511;SDS011;9999;48.780;9.146;2023-05-08T08:57:21;8.20;;;3.70;;
7511;SDS011;9999;48.780;9.146;2023-05-08T08:59:49;6.13;;;4.05;;
7511;SDS011;9999;48.780;9.146;2023-05-08T09:02:19;5.35;;;4.22;;
7511;SDS011;9999;48.780;9.146;2023-05-08T09:04:48;4.78;;;4.15;;
7511;SDS011;9999;48.780;9.146;2023-05-08T09:07:15;7.53;;;3.67;;
7511;SDS011;9999;48.780;9.146;2023-05-08T09:09:43;6.55;;;4.97;;
7511;SDS011;9999;48.780;9.146;2023-05-08T09:12:11;5.55;;;3.72;;
7511;SDS011;9999;48.780;9.146;2023-05-08T09:14:38;6.68;;;3.97;;
7511;SDS011;9999;48.780;9.146;2023-05-08T09:17:05;5.55;;;3.65;;
7511;SDS011;9999;48.780;9.146;2023-05-08T09:19:33;5.70;;;3.97;;
7511;SDS011;9999;48.780;9.146;2023-05-08T09:22:01;5.88;;;3.63;;
7511;SDS011;9999;48.780;9.146;2023-05-08T09:24:52;5.88;;;3.92;;
7511;SDS011;9999;48.780;9.146;2023-05-08T09:27:21;3.97;;;2.85;;
7511;SDS011;9999;48.780;9.146;2023-05-08T09:29:58;7.10;;;4.63;;
7511;SDS011;9999;48.780;9.146;2023-05-08T09:32:27;7.00;;;4.10;;
7511;SDS011;9999;48.780;9.146;2023-05-08T09:34:55;8.77;;;4.75;;
7511;SDS011;9999;48.780;9.146;2023-05-08T09:37:22;6.57;;;4.40;;
7511;SDS011;9999;48.780;9.146;2023-05-08T09:39:50;6.28;;;4.60;;
7511;SDS011;9999;48.780;9.146;2023-05-08T09:42:17;6.82;;;4.78;;
7511;SDS011;9999;48.780;9.146;2023-05-08T09:44:45;7.18;;;4.97;;
7511;SDS011;9999;48.780;9.146;2023-05-08T09:47:14;7.63;;;4.22;;
7511;SDS011;9999;48.780;9.146;2023-05-08T09:49:58;6.70;;;4.38;;
7511;SDS011;9999;48.780;9.146;2023-05-08T09:52:26;6.57;;;4.07;;
7511;SDS011;9999;48.780;9.146;2023-05-08T09:54:57;9.25;;;4.45;;
7511;SDS011;9999;48.780;9.146;2023-05-08T09:57:24;5.45;;;4.22;;
7511;SDS011;9999;48.780;9.146;2023-05-08T09:59:59;9.40;;;4.85;;
7511;SDS011;9999;48.780;9.146;2023-05-08T10:02:27;5.32;;;3.63;;
7511;SDS011;9999;48.780;9.146;2023-05-08T10:04:54;5.82;;;4.07;;
7511;SDS011;9999;48.780;9.146;2023-05-08T10:07:33;6.78;;;4.63;;
7511;SDS011;9999;48.780;9.146;2023-05-08T10:10:04;6.47;;;4.07;;
7511;SDS011;9999;48.780;9.146;2023-05-08T10:12:32;5.85;;;3.33;;
7511;SDS011;9999;48.780;9.146;2023-05-08T10:14:58;4.70;;;3.78;;
7511;SDS011;9999;48.780;9.146;2023-05-08T10:17:26;4.00;;;3.30;;
7511;SDS011;9999;48.780;9.146;2023-05-08T10:19:59;3.90;;;3.08;;
7511;SDS011;9999;48.780;9.146;2023-05-08T10:22:33;4.82;;;3.42;;
7511;SDS011;9999;48.780;9.146;2023-05-08T10:25:01;4.30;;;3.60;;
7511;SDS011;9999;48.780;9.146;2023-05-08T10:27:34;5.40;;;3.75;;
7511;SDS011;9999;48.780;9.146;2023-05-08T10:30:04;6.88;;;4.45;;
7511;SDS011;9999;48.780;9.146;2023-05-08T10:32:36;6.75;;;4.65;;
7511;SDS011;9999;48.780;9.146;2023-05-08T10:35:07;6.03;;;3.67;;
7511;SDS011;9999;48.780;9.146;2023-05-08T10:37:38;7.93;;;3.63;;
7511;SDS011;9999;48.780;9.146;2023-05-08T10:40:06;6.35;;;3.67;;
7511;SDS011;9999;48.780;9.146;2023-05-08T10:42:34;6.68;;;4.22;;
7511;SDS011;9999;48.780;9.146;2023-05-08T10:45:02;4.60;;;3.53;;
7511;SDS011;9999;48.780;9.146;2023-05-08T10:50:41;7.38;;;3.92;;
7511;SDS011;9999;48.780;9.146;2023-05-08T10:53:19;7.45;;;3.97;;
7511;SDS011;9999;48.780;9.146;2023-05-08T10:55:54;7.45;;;4.68;;
7511;SDS011;9999;48.780;9.146;2023-05-08T10:58:28;5.20;;;4.28;;
7511;SDS011;9999;48.780;9.146;2023-05-08T11:01:12;13.50;;;5.47;;
7511;SDS011;9999;48.780;9.146;2023-05-08T11:03:40;5.40;;;4.15;;
7511;SDS011;9999;48.780;9.146;2023-05-08T11:06:09;4.63;;;4.05;;
7511;SDS011;9999;48.780;9.146;2023-05-08T11:08:45;7.90;;;5.15;;
7511;SDS011;9999;48.780;9.146;2023-05-08T11:11:22;9.52;;;5.22;;
7511;SDS011;9999;48.780;9.146;2023-05-08T11:13:53;6.45;;;4.70;;
7511;SDS011;9999;48.780;9.146;2023-05-08T11:19:29;6.38;;;3.72;;
7511;SDS011;9999;48.780;9.146;2023-05-08T11:22:16;4.63;;;3.90;;
7511;SDS011;9999;48.780;9.146;2023-05-08T11:24:49;6.25;;;3.72;;
7511;SDS011;9999;48.780;9.146;2023-05-08T11:27:29;5.15;;;3.05;;
7511;SDS011;9999;48.780;9.146;2023-05-08T11:35:48;4.82;;;3.63;;
7511;SDS011;9999;48.780;9.146;2023-05-08T11:38:24;4.85;;;3.85;;
7511;SDS011;9999;48.780;9.146;2023-05-08T11:41:03;5.47;;;3.63;;
7511;SDS011;9999;48.780;9.146;2023-05-08T11:46:39;4.82;;;3.75;;
7511;SDS011;9999;48.780;9.146;2023-05-08T11:49:11;4.72;;;3.33;;
7511;SDS011;9999;48.780;9.146;2023-05-08T11:51:40;6.15;;;3.97;;
7511;SDS011;9999;48.780;9.146;2023-05-08T11:54:09;4.30;;;3.60;;
7511;SDS011;9999;48.780;9.146;2023-05-08T11:56:39;11.90;;;4.60;;
7511;SDS011;9999;48.780;9.146;2023-05-08T11:59:06;7.20;;;4.32;;
7511;SDS011;9999;48.780;9.146;2023-05-08T12:01:34;6.88;;;4.15;;
7511;SDS011;9999;48.780;9.146;2023-05-08T12:04:04;5.57;;;3.67;;
7511;SDS011;9999;48.780;9.146;2023-05-08T12:06:32;5.47;;;3.92;;
7511;SDS011;9999;48.780;9.146;2023-05-08T12:09:02;5.38;;;3.70;;
7511;SDS011;9999;48.780;9.146;2023-05-08T12:11:34;6.03;;;4.40;;
7511;SDS011;9999;48.780;9.146;2023-05-08T12:14:02;5.15;;;3.75;;
7511;SDS011;9999;48.780;9.146;2023-05-08T12:16:33;9.85;;;5.22;;
7511;SDS011;9999;48.780;9.146;2023-05-08T12:19:01;6.75;;;4.60;;
7511;SDS011;9999;48.780;9.146;2023-05-08T12:21:27;5.97;;;4.10;;
7511;SDS011;9999;48.780;9.146;2023-05-08T12:23:54;5.88;;;3.80;;
7511;SDS011;9999;48.780;9.146;2023-05-08T12:26:22;11.43;;;5.20;;
7511;SDS011;9999;48.780;9.146;2023-05-08T12:28:53;5.85;;;3.97;;
7511;SDS011;9999;48.780;9.146;2023-05-08T12:31:22;6.22;;;4.30;;
7511;SDS011;9999;48.780;9.146;2023-05-08T12:33:49;9.32;;;4.20;;
7511;SDS011;9999;48.780;9.146;2023-05-08T12:36:16;4.38;;;3.63;;
7511;SDS011;9999;48.780;9.146;2023-05-08T12:38:43;8.05;;;4.15;;
7511;SDS011;9999;48.780;9.146;2023-05-08T12:41:10;5.88;;;3.95;;
7511;SDS011;9999;48.780;9.146;2023-05-08T12:43:37;3.50;;;3.13;;
7511;SDS011;9999;48.780;9.146;2023-05-08T12:46:04;5.85;;;3.72;;
7511;SDS011;9999;48.780;9.146;2023-05-08T12:48:32;6.65;;;4.53;;
7511;SDS011;9999;48.780;9.146;2023-05-08T12:51:02;5.75;;;3.85;;
7511;SDS011;9999;48.780;9.146;2023-05-08T12:53:30;6.10;;;4.15;;
7511;SDS011;9999;48.780;9.146;2023-05-08T12:55:59;4.55;;;3.65;;
7511;SDS011;9999;48.780;9.146;2023-05-08T12:58:27;7.90;;;4.55;;
7511;SDS011;9999;48.780;9.146;2023-05-08T13:01:02;8.13;;;3.95;;
7511;SDS011;9999;48.780;9.146;2023-05-08T13:03:32;4.88;;;4.03;;
7511;SDS011;9999;48.780;9.146;2023-05-08T13:05:59;4.88;;;4.20;;
7511;SDS011;9999;48.780;9.146;2023-05-08T13:08:29;8.05;;;4.05;;
7511;SDS011;9999;48.780;9.146;2023-05-08T13:10:58;6.30;;;3.95;;
7511;SDS011;9999;48.780;9.146;2023-05-08T13:13:26;5.97;;;4.05;;
7511;SDS011;9999;48.780;9.146;2023-05-08T13:15:55;4.65;;;3.35;;
7511;SDS011;9999;48.780;9.146;2023-05-08T13:18:23;6.45;;;4.30;;
7511;SDS011;9999;48.780;9.146;2023-05-08T13:20:53;4.90;;;3.72;;
7511;SDS011;9999;48.780;9.146;2023-05-08T13:23:20;10.23;;;5.30;;
7511;SDS011;9999;48.780;9.146;2023-05-08T13:25:48;10.98;;;6.03;;
7511;SDS011;9999;48.780;9.146;2023-05-08T13:28:15;10.23;;;6.65;;
7511;SDS011;9999;48.780;9.146;2023-05-08T13:30:42;8.43;;;6.00;;
7511;SDS011;9999;48.780;9.146;2023-05-08T13:33:09;12.40;;;6.40;;
7511;SDS011;9999;48.780;9.146;2023-05-08T13:35:36;8.82;;;6.40;;
7511;SDS011;9999;48.780;9.146;2023-05-08T13:38:04;9.23;;;6.65;;
7511;SDS011;9999;48.780;9.146;2023-05-08T13:40:31;8.80;;;5.65;;
7511;SDS011;9999;48.780;9.146;2023-05-08T13:42:57;7.95;;;5.38;;
7511;SDS011;9999;48.780;9.146;2023-05-08T13:45:24;9.63;;;5.68;;
7511;SDS011;9999;48.780;9.146;2023-05-08T13:47:51;10.10;;;6.25;;
7511;SDS011;9999;48.780;9.146;2023-05-08T13:50:18;8.25;;;5.85;;
7511;SDS011;9999;48.780;9.146;2023-05-08T13:52:45;7.80;;;5.35;;
7511;SDS011;9999;48.780;9.146;2023-05-08T13:55:14;8.05;;;5.85;;
7511;SDS011;9999;48.780;9.146;2023-05-08T13:57:41;7.70;;;5.72;;
7511;SDS011;9999;48.780;9.146;2023-05-08T14:00:08;7.28;;;5.50;;
7511;SDS011;9999;48.780;9.146;2023-05-08T14:02:36;8.55;;;5.82;;
7511;SDS011;9999;48.780;9.146;2023-05-08T14:05:03;9.20;;;5.97;;
7511;SDS011;9999;48.780;9.146;2023-05-08T14:07:32;9.23;;;5.72;;
7511;SDS011;9999;48.780;9.146;2023-05-08T14:09:59;11.25;;;5.95;;
7511;SDS011;9999;48.780;9.146;2023-05-08T14:12:27;9.23;;;5.80;;
7511;SDS011;9999;48.780;9.146;2023-05-08T14:14:54;10.57;;;6.93;;
7511;SDS011;9999;48.780;9.146;2023-05-08T14:17:20;10.68;;;6.47;;
7511;SDS011;9999;48.780;9.146;2023-05-08T14:19:47;9.88;;;5.47;;
7511;SDS011;9999;48.780;9.146;2023-05-08T14:22:14;13.20;;;7.18;;
7511;SDS011;9999;48.780;9.146;2023-05-08T14:24:41;13.07;;;5.97;;
7511;SDS011;9999;48.780;9.146;2023-05-08T14:27:08;11.98;;;7.15;;
7511;SDS011;9999;48.780;9.146;2023-05-08T14:29:36;9.55;;;5.57;;
7511;SDS011;9999;48.780;9.146;2023-05-08T14:32:03;11.02;;;6.93;;
7511;SDS011;9999;48.780;9.146;2023-05-08T14:34:30;9.88;;;6.95;;
7511;SDS011;9999;48.780;9.146;2023-05-08T14:36:57;8.48;;;6.10;;
7511;SDS011;9999;48.780;9.146;2023-05-08T14:39:23;11.43;;;7.15;;
7511;SDS011;9999;48.780;9.146;2023-05-08T14:41:50;14.40;;;6.68;;
7511;SDS011;9999;48.780;9.146;2023-05-08T14:44:17;11.82;;;7.35;;
7511;SDS011;9999;48.780;9.146;2023-05-08T14:46:45;10.95;;;6.60;;
7511;SDS011;9999;48.780;9.146;2023-05-08T14:49:12;12.65;;;8.00;;
7511;SDS011;9999;48.780;9.146;2023-05-08T14:51:39;12.02;;;7.43;;
7511;SDS011;9999;48.780;9.146;2023-05-08T14:54:05;12.85;;;7.28;;
7511;SDS011;9999;48.780;9.146;2023-05-08T14:56:32;17.00;;;8.10;;
7511;SDS011;9999;48.780;9.146;2023-05-08T14:58:59;11.18;;;7.20;;
7511;SDS011;9999;48.780;9.146;2023-05-08T15:01:26;13.40;;;8.35;;
7511;SDS011;9999;48.780;9.146;2023-05-08T15:03:54;11.88;;;7.55;;
7511;SDS011;9999;48.780;9.146;2023-05-08T15:06:21;14.98;;;7.80;;
7511;SDS011;9999;48.780;9.146;2023-05-08T15:08:49;13.57;;;7.60;;
7511;SDS011;9999;48.780;9.146;2023-05-08T15:11:16;12.70;;;7.30;;
7511;SDS011;9999;48.780;9.146;2023-05-08T15:13:43;11.00;;;7.35;;
7511;SDS011;9999;48.780;9.146;2023-05-08T15:16:10;13.65;;;8.73;;
7511;SDS011;9999;48.780;9.146;2023-05-08T15:18:36;11.60;;;7.25;;
7511;SDS011;9999;48.780;9.146;2023-05-08T15:21:05;13.43;;;7.70;;
7511;SDS011;9999;48.780;9.146;2023-05-08T15:23:32;12.15;;;7.50;;
7511;SDS011;9999;48.780;9.146;2023-05-08T15:25:59;12.00;;;6.88;;
7511;SDS011;9999;48.780;9.146;2023-05-08T15:28:27;11.95;;;8.07;;
7511;SDS011;9999;48.780;9.146;2023-05-08T15:30:54;10.38;;;6.88;;
7511;SDS011;9999;48.780;9.146;2023-05-08T15:33:21;10.00;;;6.75;;
7511;SDS011;9999;48.780;9.146;2023-05-08T15:35:47;10.48;;;7.20;;
7511;SDS011;9999;48.780;9.146;2023-05-08T15:38:15;17.48;;;8.18;;
7511;SDS011;9999;48.780;9.146;2023-05-08T15:40:42;11.05;;;7.80;;
7511;SDS011;9999;48.780;9.146;2023-05-08T15:43:09;14.80;;;8.57;;